Akeley, Minnesota
Current Conditions -  °F | °C
As of 12:15 AM on Saturday 01 Nov 2014 (Local Time) from KY49 Reporting Station
Clear Clear  
Wind Chill: 23°   Ceiling: Unl
Heat Index: 29°   Visibility: 10mi
Dew Point: 14°   Wind: 6mph
Humidity: 54%   Direction: 170°S
Pressure: 30.38"   Gusts: NA
Location:  47°N, 94.73°W
Report Text: KY49 010515Z AUTO 17005KT 10SM CLR M02/M10 A3038 RMK AO2 T10161098
Loading
Personal Weather Stations






























Interactive Weather Map
Tropical Storm Tracking
New forecast layout! Learn more

10-Day Weather Forecast

Advertisements
Track Severe Weather on mobile